sensor_id;sensor_type;location;lat;lon;timestamp;P1;durP1;ratioP1;P2;durP2;ratioP2
42600;SDS011;28229;48.856;9.088;2023-09-18T00:00:58;3.23;;;2.63;;
42600;SDS011;28229;48.856;9.088;2023-09-18T00:03:24;2.70;;;2.50;;
42600;SDS011;28229;48.856;9.088;2023-09-18T00:05:51;3.37;;;3.07;;
42600;SDS011;28229;48.856;9.088;2023-09-18T00:08:18;3.10;;;2.90;;
42600;SDS011;28229;48.856;9.088;2023-09-18T00:10:49;2.73;;;2.50;;
42600;SDS011;28229;48.856;9.088;2023-09-18T00:13:19;2.90;;;2.60;;
42600;SDS011;28229;48.856;9.088;2023-09-18T00:15:45;2.77;;;2.57;;
42600;SDS011;28229;48.856;9.088;2023-09-18T00:18:15;3.10;;;2.80;;
42600;SDS011;28229;48.856;9.088;2023-09-18T00:20:42;2.70;;;2.50;;
42600;SDS011;28229;48.856;9.088;2023-09-18T00:23:09;3.37;;;2.77;;
42600;SDS011;28229;48.856;9.088;2023-09-18T00:25:35;3.00;;;2.70;;
42600;SDS011;28229;48.856;9.088;2023-09-18T00:28:08;3.43;;;3.07;;
42600;SDS011;28229;48.856;9.088;2023-09-18T00:30:34;3.43;;;3.13;;
42600;SDS011;28229;48.856;9.088;2023-09-18T00:33:00;3.60;;;3.30;;
42600;SDS011;28229;48.856;9.088;2023-09-18T00:35:27;4.10;;;3.37;;
42600;SDS011;28229;48.856;9.088;2023-09-18T00:37:53;4.43;;;3.40;;
42600;SDS011;28229;48.856;9.088;2023-09-18T00:40:20;3.87;;;3.47;;
42600;SDS011;28229;48.856;9.088;2023-09-18T00:42:46;3.50;;;3.20;;
42600;SDS011;28229;48.856;9.088;2023-09-18T00:45:12;4.80;;;3.20;;
42600;SDS011;28229;48.856;9.088;2023-09-18T00:47:40;3.57;;;3.27;;
42600;SDS011;28229;48.856;9.088;2023-09-18T00:50:07;3.27;;;3.00;;
42600;SDS011;28229;48.856;9.088;2023-09-18T00:52:37;4.50;;;3.40;;
42600;SDS011;28229;48.856;9.088;2023-09-18T00:55:04;3.67;;;2.90;;
42600;SDS011;28229;48.856;9.088;2023-09-18T00:57:33;3.60;;;3.30;;
42600;SDS011;28229;48.856;9.088;2023-09-18T01:00:00;4.47;;;3.30;;
42600;SDS011;28229;48.856;9.088;2023-09-18T01:02:27;3.03;;;2.83;;
42600;SDS011;28229;48.856;9.088;2023-09-18T01:04:53;3.50;;;3.20;;
42600;SDS011;28229;48.856;9.088;2023-09-18T01:07:20;4.30;;;3.30;;
42600;SDS011;28229;48.856;9.088;2023-09-18T01:09:46;5.63;;;3.40;;
42600;SDS011;28229;48.856;9.088;2023-09-18T01:12:17;3.60;;;3.10;;
42600;SDS011;28229;48.856;9.088;2023-09-18T01:17:37;3.57;;;3.10;;
42600;SDS011;28229;48.856;9.088;2023-09-18T01:20:09;4.43;;;2.87;;
42600;SDS011;28229;48.856;9.088;2023-09-18T01:22:36;3.00;;;2.80;;
42600;SDS011;28229;48.856;9.088;2023-09-18T01:25:03;3.30;;;3.00;;
42600;SDS011;28229;48.856;9.088;2023-09-18T01:27:29;3.43;;;3.13;;
42600;SDS011;28229;48.856;9.088;2023-09-18T01:29:55;2.90;;;2.67;;
42600;SDS011;28229;48.856;9.088;2023-09-18T01:32:23;3.50;;;2.90;;
42600;SDS011;28229;48.856;9.088;2023-09-18T01:34:52;3.33;;;3.07;;
42600;SDS011;28229;48.856;9.088;2023-09-18T01:37:25;3.10;;;2.90;;
42600;SDS011;28229;48.856;9.088;2023-09-18T01:39:53;3.00;;;2.80;;
42600;SDS011;28229;48.856;9.088;2023-09-18T01:42:23;3.87;;;2.97;;
42600;SDS011;28229;48.856;9.088;2023-09-18T01:44:52;3.37;;;2.50;;
42600;SDS011;28229;48.856;9.088;2023-09-18T01:47:20;2.73;;;2.50;;
42600;SDS011;28229;48.856;9.088;2023-09-18T01:49:47;2.90;;;2.60;;
42600;SDS011;28229;48.856;9.088;2023-09-18T01:52:13;3.50;;;2.80;;
42600;SDS011;28229;48.856;9.088;2023-09-18T01:54:41;4.50;;;2.73;;
42600;SDS011;28229;48.856;9.088;2023-09-18T01:57:07;4.47;;;2.70;;
42600;SDS011;28229;48.856;9.088;2023-09-18T01:59:34;5.13;;;2.57;;
42600;SDS011;28229;48.856;9.088;2023-09-18T02:02:01;3.43;;;2.40;;
42600;SDS011;28229;48.856;9.088;2023-09-18T02:04:32;6.10;;;2.80;;
42600;SDS011;28229;48.856;9.088;2023-09-18T02:06:59;5.57;;;2.50;;
42600;SDS011;28229;48.856;9.088;2023-09-18T02:09:25;4.77;;;2.70;;
42600;SDS011;28229;48.856;9.088;2023-09-18T02:11:51;7.63;;;2.73;;
42600;SDS011;28229;48.856;9.088;2023-09-18T02:14:17;7.23;;;3.07;;
42600;SDS011;28229;48.856;9.088;2023-09-18T02:16:43;7.10;;;3.00;;
42600;SDS011;28229;48.856;9.088;2023-09-18T02:19:11;6.70;;;2.70;;
42600;SDS011;28229;48.856;9.088;2023-09-18T02:21:39;7.20;;;2.87;;
42600;SDS011;28229;48.856;9.088;2023-09-18T02:24:07;6.70;;;2.97;;
42600;SDS011;28229;48.856;9.088;2023-09-18T02:26:34;8.67;;;2.80;;
42600;SDS011;28229;48.856;9.088;2023-09-18T02:29:02;10.50;;;2.90;;
42600;SDS011;28229;48.856;9.088;2023-09-18T02:31:30;6.60;;;3.33;;
42600;SDS011;28229;48.856;9.088;2023-09-18T02:33:56;8.37;;;3.07;;
42600;SDS011;28229;48.856;9.088;2023-09-18T02:36:22;4.60;;;2.80;;
42600;SDS011;28229;48.856;9.088;2023-09-18T02:38:48;8.37;;;3.03;;
42600;SDS011;28229;48.856;9.088;2023-09-18T02:41:15;7.33;;;2.80;;
42600;SDS011;28229;48.856;9.088;2023-09-18T02:43:50;5.00;;;3.03;;
42600;SDS011;28229;48.856;9.088;2023-09-18T02:46:17;6.30;;;2.73;;
42600;SDS011;28229;48.856;9.088;2023-09-18T02:48:44;7.47;;;2.77;;
42600;SDS011;28229;48.856;9.088;2023-09-18T02:51:11;9.93;;;3.33;;
42600;SDS011;28229;48.856;9.088;2023-09-18T02:53:37;5.90;;;3.10;;
42600;SDS011;28229;48.856;9.088;2023-09-18T02:56:03;4.10;;;2.50;;
42600;SDS011;28229;48.856;9.088;2023-09-18T02:58:29;5.73;;;3.20;;
42600;SDS011;28229;48.856;9.088;2023-09-18T03:00:56;5.83;;;2.90;;
42600;SDS011;28229;48.856;9.088;2023-09-18T03:03:24;9.07;;;3.53;;
42600;SDS011;28229;48.856;9.088;2023-09-18T03:05:50;4.37;;;2.70;;
42600;SDS011;28229;48.856;9.088;2023-09-18T03:08:17;5.57;;;2.70;;
42600;SDS011;28229;48.856;9.088;2023-09-18T03:10:43;9.27;;;2.90;;
42600;SDS011;28229;48.856;9.088;2023-09-18T03:13:10;7.30;;;3.17;;
42600;SDS011;28229;48.856;9.088;2023-09-18T03:15:39;5.57;;;2.83;;
42600;SDS011;28229;48.856;9.088;2023-09-18T03:18:06;6.50;;;3.10;;
42600;SDS011;28229;48.856;9.088;2023-09-18T03:20:34;8.03;;;3.07;;
42600;SDS011;28229;48.856;9.088;2023-09-18T03:23:08;5.67;;;3.00;;
42600;SDS011;28229;48.856;9.088;2023-09-18T03:25:35;5.77;;;3.30;;
42600;SDS011;28229;48.856;9.088;2023-09-18T03:28:03;10.27;;;3.33;;
42600;SDS011;28229;48.856;9.088;2023-09-18T03:30:32;5.63;;;2.87;;
42600;SDS011;28229;48.856;9.088;2023-09-18T03:32:58;6.67;;;3.27;;
42600;SDS011;28229;48.856;9.088;2023-09-18T03:37:56;7.17;;;3.30;;
42600;SDS011;28229;48.856;9.088;2023-09-18T03:40:22;9.60;;;3.40;;
42600;SDS011;28229;48.856;9.088;2023-09-18T03:42:48;6.80;;;3.30;;
42600;SDS011;28229;48.856;9.088;2023-09-18T03:45:15;7.63;;;3.20;;
42600;SDS011;28229;48.856;9.088;2023-09-18T03:47:45;7.07;;;2.83;;
42600;SDS011;28229;48.856;9.088;2023-09-18T03:50:11;7.13;;;3.07;;
42600;SDS011;28229;48.856;9.088;2023-09-18T03:52:38;4.43;;;2.70;;
42600;SDS011;28229;48.856;9.088;2023-09-18T03:55:07;4.57;;;2.60;;
42600;SDS011;28229;48.856;9.088;2023-09-18T03:57:33;6.87;;;3.10;;
42600;SDS011;28229;48.856;9.088;2023-09-18T04:00:00;5.53;;;2.93;;
42600;SDS011;28229;48.856;9.088;2023-09-18T04:02:26;4.17;;;2.90;;
42600;SDS011;28229;48.856;9.088;2023-09-18T04:04:55;5.80;;;2.93;;
42600;SDS011;28229;48.856;9.088;2023-09-18T04:07:21;7.17;;;3.33;;
42600;SDS011;28229;48.856;9.088;2023-09-18T04:09:47;6.27;;;3.13;;
42600;SDS011;28229;48.856;9.088;2023-09-18T04:12:14;6.50;;;3.27;;
42600;SDS011;28229;48.856;9.088;2023-09-18T04:14:40;7.60;;;2.93;;
42600;SDS011;28229;48.856;9.088;2023-09-18T04:17:06;8.40;;;3.00;;
42600;SDS011;28229;48.856;9.088;2023-09-18T04:19:32;5.33;;;2.80;;
42600;SDS011;28229;48.856;9.088;2023-09-18T04:21:58;9.53;;;3.43;;
42600;SDS011;28229;48.856;9.088;2023-09-18T04:24:27;5.20;;;2.70;;
42600;SDS011;28229;48.856;9.088;2023-09-18T04:26:53;5.67;;;3.20;;
42600;SDS011;28229;48.856;9.088;2023-09-18T04:29:20;8.13;;;3.40;;
42600;SDS011;28229;48.856;9.088;2023-09-18T04:31:48;5.60;;;3.30;;
42600;SDS011;28229;48.856;9.088;2023-09-18T04:34:14;6.00;;;3.07;;
42600;SDS011;28229;48.856;9.088;2023-09-18T04:36:41;5.67;;;3.10;;
42600;SDS011;28229;48.856;9.088;2023-09-18T04:39:09;6.77;;;3.20;;
42600;SDS011;28229;48.856;9.088;2023-09-18T04:41:36;5.97;;;3.17;;
42600;SDS011;28229;48.856;9.088;2023-09-18T04:44:04;5.10;;;3.10;;
42600;SDS011;28229;48.856;9.088;2023-09-18T04:49:41;8.13;;;2.73;;
42600;SDS011;28229;48.856;9.088;2023-09-18T04:52:07;4.57;;;2.60;;
42600;SDS011;28229;48.856;9.088;2023-09-18T04:54:35;5.50;;;2.73;;
42600;SDS011;28229;48.856;9.088;2023-09-18T04:57:01;8.33;;;3.23;;
42600;SDS011;28229;48.856;9.088;2023-09-18T04:59:27;7.57;;;2.80;;
42600;SDS011;28229;48.856;9.088;2023-09-18T05:01:53;5.83;;;2.63;;
42600;SDS011;28229;48.856;9.088;2023-09-18T05:04:19;5.97;;;2.90;;
42600;SDS011;28229;48.856;9.088;2023-09-18T05:06:46;6.37;;;3.07;;
42600;SDS011;28229;48.856;9.088;2023-09-18T05:09:12;4.43;;;2.70;;
42600;SDS011;28229;48.856;9.088;2023-09-18T05:11:38;8.83;;;3.27;;
42600;SDS011;28229;48.856;9.088;2023-09-18T05:14:06;8.87;;;3.47;;
42600;SDS011;28229;48.856;9.088;2023-09-18T05:16:32;5.53;;;3.00;;
42600;SDS011;28229;48.856;9.088;2023-09-18T05:18:58;8.27;;;3.27;;
42600;SDS011;28229;48.856;9.088;2023-09-18T05:21:26;6.63;;;3.57;;
42600;SDS011;28229;48.856;9.088;2023-09-18T05:23:52;6.40;;;3.40;;
42600;SDS011;28229;48.856;9.088;2023-09-18T05:26:19;5.73;;;3.07;;
42600;SDS011;28229;48.856;9.088;2023-09-18T05:28:50;6.63;;;3.50;;
42600;SDS011;28229;48.856;9.088;2023-09-18T05:31:16;9.63;;;3.53;;
42600;SDS011;28229;48.856;9.088;2023-09-18T05:33:42;5.23;;;3.10;;
42600;SDS011;28229;48.856;9.088;2023-09-18T05:36:09;8.23;;;3.40;;
42600;SDS011;28229;48.856;9.088;2023-09-18T05:38:35;4.53;;;3.17;;
42600;SDS011;28229;48.856;9.088;2023-09-18T05:41:01;6.00;;;3.20;;
42600;SDS011;28229;48.856;9.088;2023-09-18T05:43:27;6.90;;;3.13;;
42600;SDS011;28229;48.856;9.088;2023-09-18T05:45:53;7.20;;;3.23;;
42600;SDS011;28229;48.856;9.088;2023-09-18T05:48:20;8.97;;;3.17;;
42600;SDS011;28229;48.856;9.088;2023-09-18T05:50:46;7.33;;;2.90;;
42600;SDS011;28229;48.856;9.088;2023-09-18T05:53:13;4.33;;;3.30;;
42600;SDS011;28229;48.856;9.088;2023-09-18T05:55:39;3.73;;;2.50;;
42600;SDS011;28229;48.856;9.088;2023-09-18T05:58:05;7.50;;;3.10;;
42600;SDS011;28229;48.856;9.088;2023-09-18T06:00:33;4.93;;;2.97;;
42600;SDS011;28229;48.856;9.088;2023-09-18T06:02:59;5.67;;;2.40;;
42600;SDS011;28229;48.856;9.088;2023-09-18T06:05:26;5.57;;;2.70;;
42600;SDS011;28229;48.856;9.088;2023-09-18T06:07:52;5.97;;;2.50;;
42600;SDS011;28229;48.856;9.088;2023-09-18T06:10:19;5.47;;;2.63;;
42600;SDS011;28229;48.856;9.088;2023-09-18T06:12:45;7.33;;;2.80;;
42600;SDS011;28229;48.856;9.088;2023-09-18T06:15:11;6.27;;;2.60;;
42600;SDS011;28229;48.856;9.088;2023-09-18T06:17:38;5.77;;;2.60;;
42600;SDS011;28229;48.856;9.088;2023-09-18T06:20:06;6.47;;;2.73;;
42600;SDS011;28229;48.856;9.088;2023-09-18T06:22:37;3.30;;;2.30;;
42600;SDS011;28229;48.856;9.088;2023-09-18T06:25:04;6.63;;;2.40;;
42600;SDS011;28229;48.856;9.088;2023-09-18T06:27:36;5.37;;;2.43;;
42600;SDS011;28229;48.856;9.088;2023-09-18T06:30:04;5.40;;;2.40;;
42600;SDS011;28229;48.856;9.088;2023-09-18T06:32:31;6.83;;;2.63;;
42600;SDS011;28229;48.856;9.088;2023-09-18T06:34:58;6.13;;;2.37;;
42600;SDS011;28229;48.856;9.088;2023-09-18T06:37:24;6.73;;;2.33;;
42600;SDS011;28229;48.856;9.088;2023-09-18T06:39:51;4.97;;;2.10;;
42600;SDS011;28229;48.856;9.088;2023-09-18T06:42:18;4.17;;;2.03;;
42600;SDS011;28229;48.856;9.088;2023-09-18T06:44:44;3.80;;;2.03;;
42600;SDS011;28229;48.856;9.088;2023-09-18T06:47:11;5.30;;;2.20;;
42600;SDS011;28229;48.856;9.088;2023-09-18T06:49:37;5.67;;;2.10;;
42600;SDS011;28229;48.856;9.088;2023-09-18T06:52:03;6.47;;;2.20;;
42600;SDS011;28229;48.856;9.088;2023-09-18T06:54:30;3.97;;;1.83;;
42600;SDS011;28229;48.856;9.088;2023-09-18T06:56:56;5.30;;;1.87;;
42600;SDS011;28229;48.856;9.088;2023-09-18T06:59:22;5.63;;;2.03;;
42600;SDS011;28229;48.856;9.088;2023-09-18T07:01:49;4.90;;;1.80;;
42600;SDS011;28229;48.856;9.088;2023-09-18T07:04:15;3.20;;;1.80;;
42600;SDS011;28229;48.856;9.088;2023-09-18T07:06:41;5.30;;;1.67;;
42600;SDS011;28229;48.856;9.088;2023-09-18T07:09:07;5.57;;;2.07;;
42600;SDS011;28229;48.856;9.088;2023-09-18T07:11:37;4.17;;;1.93;;
42600;SDS011;28229;48.856;9.088;2023-09-18T07:14:04;8.40;;;1.70;;
42600;SDS011;28229;48.856;9.088;2023-09-18T07:16:32;4.17;;;2.00;;
42600;SDS011;28229;48.856;9.088;2023-09-18T07:18:59;3.10;;;1.47;;
42600;SDS011;28229;48.856;9.088;2023-09-18T07:21:26;3.27;;;1.53;;
42600;SDS011;28229;48.856;9.088;2023-09-18T07:23:52;3.40;;;1.57;;
42600;SDS011;28229;48.856;9.088;2023-09-18T07:26:21;3.70;;;1.53;;
42600;SDS011;28229;48.856;9.088;2023-09-18T07:28:47;4.10;;;1.60;;
42600;SDS011;28229;48.856;9.088;2023-09-18T07:31:14;6.50;;;1.70;;
42600;SDS011;28229;48.856;9.088;2023-09-18T07:33:40;4.80;;;1.70;;
42600;SDS011;28229;48.856;9.088;2023-09-18T07:36:08;5.23;;;1.90;;
42600;SDS011;28229;48.856;9.088;2023-09-18T07:38:35;2.20;;;1.40;;
42600;SDS011;28229;48.856;9.088;2023-09-18T07:41:03;3.37;;;1.40;;
42600;SDS011;28229;48.856;9.088;2023-09-18T07:43:29;4.57;;;1.40;;
42600;SDS011;28229;48.856;9.088;2023-09-18T07:45:55;4.10;;;1.60;;
42600;SDS011;28229;48.856;9.088;2023-09-18T07:48:22;3.47;;;1.43;;
42600;SDS011;28229;48.856;9.088;2023-09-18T07:50:48;3.37;;;1.63;;
42600;SDS011;28229;48.856;9.088;2023-09-18T07:53:15;5.00;;;1.40;;
42600;SDS011;28229;48.856;9.088;2023-09-18T07:55:42;3.00;;;1.43;;
42600;SDS011;28229;48.856;9.088;2023-09-18T07:58:09;2.47;;;1.53;;
42600;SDS011;28229;48.856;9.088;2023-09-18T08:00:35;3.43;;;1.33;;
42600;SDS011;28229;48.856;9.088;2023-09-18T08:03:01;4.07;;;1.30;;
42600;SDS011;28229;48.856;9.088;2023-09-18T08:05:28;1.30;;;1.20;;
42600;SDS011;28229;48.856;9.088;2023-09-18T08:07:55;4.13;;;1.30;;
42600;SDS011;28229;48.856;9.088;2023-09-18T08:10:22;2.67;;;1.37;;
42600;SDS011;28229;48.856;9.088;2023-09-18T08:12:49;3.80;;;1.83;;
42600;SDS011;28229;48.856;9.088;2023-09-18T08:15:17;3.03;;;1.40;;
42600;SDS011;28229;48.856;9.088;2023-09-18T08:17:49;2.43;;;1.37;;
42600;SDS011;28229;48.856;9.088;2023-09-18T08:20:15;3.13;;;1.30;;
42600;SDS011;28229;48.856;9.088;2023-09-18T08:22:42;2.63;;;1.20;;
42600;SDS011;28229;48.856;9.088;2023-09-18T08:25:09;2.27;;;1.30;;
42600;SDS011;28229;48.856;9.088;2023-09-18T08:27:37;2.80;;;1.03;;
42600;SDS011;28229;48.856;9.088;2023-09-18T08:30:08;2.03;;;1.30;;
42600;SDS011;28229;48.856;9.088;2023-09-18T08:32:38;1.67;;;1.00;;
42600;SDS011;28229;48.856;9.088;2023-09-18T08:35:05;2.00;;;1.00;;
42600;SDS011;28229;48.856;9.088;2023-09-18T08:37:32;2.13;;;1.10;;
42600;SDS011;28229;48.856;9.088;2023-09-18T08:40:00;2.37;;;1.00;;
42600;SDS011;28229;48.856;9.088;2023-09-18T08:42:38;1.67;;;0.90;;
42600;SDS011;28229;48.856;9.088;2023-09-18T08:45:06;1.70;;;0.93;;
42600;SDS011;28229;48.856;9.088;2023-09-18T08:47:35;1.30;;;0.90;;
42600;SDS011;28229;48.856;9.088;2023-09-18T08:50:02;2.27;;;1.10;;
42600;SDS011;28229;48.856;9.088;2023-09-18T08:52:29;1.70;;;1.00;;
42600;SDS011;28229;48.856;9.088;2023-09-18T08:54:58;2.43;;;1.10;;
42600;SDS011;28229;48.856;9.088;2023-09-18T08:57:26;1.67;;;1.07;;
42600;SDS011;28229;48.856;9.088;2023-09-18T08:59:54;3.23;;;1.70;;
42600;SDS011;28229;48.856;9.088;2023-09-18T09:02:21;1.83;;;1.10;;
42600;SDS011;28229;48.856;9.088;2023-09-18T09:04:47;1.57;;;1.10;;
42600;SDS011;28229;48.856;9.088;2023-09-18T09:07:14;1.93;;;1.20;;
42600;SDS011;28229;48.856;9.088;2023-09-18T09:09:40;2.53;;;1.20;;
42600;SDS011;28229;48.856;9.088;2023-09-18T09:12:07;1.83;;;1.10;;
42600;SDS011;28229;48.856;9.088;2023-09-18T09:14:34;1.07;;;1.03;;
42600;SDS011;28229;48.856;9.088;2023-09-18T09:17:00;2.57;;;1.20;;
42600;SDS011;28229;48.856;9.088;2023-09-18T09:19:30;2.30;;;1.03;;
42600;SDS011;28229;48.856;9.088;2023-09-18T09:21:58;4.10;;;1.50;;
42600;SDS011;28229;48.856;9.088;2023-09-18T09:24:39;4.40;;;1.20;;
42600;SDS011;28229;48.856;9.088;2023-09-18T09:27:06;3.10;;;1.30;;
42600;SDS011;28229;48.856;9.088;2023-09-18T09:29:32;3.07;;;1.37;;
42600;SDS011;28229;48.856;9.088;2023-09-18T09:32:16;2.10;;;1.37;;
42600;SDS011;28229;48.856;9.088;2023-09-18T09:34:44;2.70;;;1.30;;
42600;SDS011;28229;48.856;9.088;2023-09-18T09:37:10;2.00;;;1.53;;
42600;SDS011;28229;48.856;9.088;2023-09-18T09:39:47;2.33;;;1.23;;
42600;SDS011;28229;48.856;9.088;2023-09-18T09:42:19;3.20;;;1.40;;
42600;SDS011;28229;48.856;9.088;2023-09-18T09:45:04;2.43;;;1.40;;
42600;SDS011;28229;48.856;9.088;2023-09-18T09:47:37;3.70;;;1.30;;
42600;SDS011;28229;48.856;9.088;2023-09-18T09:50:08;2.83;;;1.37;;
42600;SDS011;28229;48.856;9.088;2023-09-18T09:52:36;4.73;;;1.43;;
42600;SDS011;28229;48.856;9.088;2023-09-18T09:55:17;3.30;;;1.50;;
42600;SDS011;28229;48.856;9.088;2023-09-18T09:57:49;2.53;;;1.50;;
42600;SDS011;28229;48.856;9.088;2023-09-18T10:00:17;3.60;;;1.70;;
42600;SDS011;28229;48.856;9.088;2023-09-18T10:02:56;5.07;;;2.00;;
42600;SDS011;28229;48.856;9.088;2023-09-18T10:05:26;3.20;;;1.70;;
42600;SDS011;28229;48.856;9.088;2023-09-18T10:07:55;3.13;;;1.43;;
42600;SDS011;28229;48.856;9.088;2023-09-18T10:10:26;2.80;;;1.70;;
42600;SDS011;28229;48.856;9.088;2023-09-18T10:12:58;4.60;;;1.53;;
42600;SDS011;28229;48.856;9.088;2023-09-18T10:15:31;3.83;;;1.50;;
42600;SDS011;28229;48.856;9.088;2023-09-18T10:17:59;4.67;;;1.40;;
42600;SDS011;28229;48.856;9.088;2023-09-18T10:20:28;2.03;;;1.40;;
42600;SDS011;28229;48.856;9.088;2023-09-18T10:22:56;2.77;;;1.30;;
42600;SDS011;28229;48.856;9.088;2023-09-18T10:25:28;4.13;;;1.90;;
42600;SDS011;28229;48.856;9.088;2023-09-18T10:27:57;2.70;;;1.60;;
42600;SDS011;28229;48.856;9.088;2023-09-18T10:30:27;4.60;;;1.60;;
42600;SDS011;28229;48.856;9.088;2023-09-18T10:32:55;2.37;;;1.73;;
42600;SDS011;28229;48.856;9.088;2023-09-18T10:35:23;4.07;;;1.80;;
42600;SDS011;28229;48.856;9.088;2023-09-18T10:37:49;3.50;;;1.80;;
42600;SDS011;28229;48.856;9.088;2023-09-18T10:40:17;4.33;;;1.67;;
42600;SDS011;28229;48.856;9.088;2023-09-18T10:42:44;3.10;;;1.50;;
42600;SDS011;28229;48.856;9.088;2023-09-18T10:45:12;2.57;;;1.47;;
42600;SDS011;28229;48.856;9.088;2023-09-18T10:47:39;3.57;;;1.60;;
42600;SDS011;28229;48.856;9.088;2023-09-18T10:50:08;3.23;;;1.50;;
42600;SDS011;28229;48.856;9.088;2023-09-18T10:52:35;4.27;;;1.70;;
42600;SDS011;28229;48.856;9.088;2023-09-18T10:55:10;2.27;;;1.60;;
42600;SDS011;28229;48.856;9.088;2023-09-18T10:57:49;4.10;;;1.50;;
42600;SDS011;28229;48.856;9.088;2023-09-18T11:00:17;4.17;;;1.77;;
42600;SDS011;28229;48.856;9.088;2023-09-18T11:02:43;3.83;;;1.60;;
42600;SDS011;28229;48.856;9.088;2023-09-18T11:05:10;3.30;;;1.77;;
42600;SDS011;28229;48.856;9.088;2023-09-18T11:07:37;3.80;;;1.70;;
42600;SDS011;28229;48.856;9.088;2023-09-18T11:12:52;4.00;;;1.80;;
42600;SDS011;28229;48.856;9.088;2023-09-18T11:15:32;3.70;;;1.60;;
42600;SDS011;28229;48.856;9.088;2023-09-18T11:18:00;2.23;;;1.20;;
42600;SDS011;28229;48.856;9.088;2023-09-18T11:20:28;2.10;;;1.60;;
42600;SDS011;28229;48.856;9.088;2023-09-18T11:22:55;4.80;;;1.60;;
42600;SDS011;28229;48.856;9.088;2023-09-18T11:28:15;2.47;;;1.57;;
42600;SDS011;28229;48.856;9.088;2023-09-18T11:30:49;3.07;;;1.67;;
42600;SDS011;28229;48.856;9.088;2023-09-18T11:33:35;3.40;;;1.60;;
42600;SDS011;28229;48.856;9.088;2023-09-18T11:36:03;4.33;;;1.60;;
42600;SDS011;28229;48.856;9.088;2023-09-18T11:39:00;11.37;;;2.80;;
42600;SDS011;28229;48.856;9.088;2023-09-18T11:41:30;4.37;;;1.90;;
42600;SDS011;28229;48.856;9.088;2023-09-18T11:44:44;2.27;;;1.40;;
42600;SDS011;28229;48.856;9.088;2023-09-18T11:46:58;2.53;;;1.20;;
42600;SDS011;28229;48.856;9.088;2023-09-18T11:49:26;3.70;;;1.57;;
42600;SDS011;28229;48.856;9.088;2023-09-18T11:51:58;2.97;;;1.50;;
42600;SDS011;28229;48.856;9.088;2023-09-18T11:54:25;2.50;;;1.47;;
42600;SDS011;28229;48.856;9.088;2023-09-18T11:56:52;1.67;;;1.50;;
42600;SDS011;28229;48.856;9.088;2023-09-18T11:59:22;2.83;;;1.60;;
42600;SDS011;28229;48.856;9.088;2023-09-18T12:01:59;2.77;;;1.23;;
42600;SDS011;28229;48.856;9.088;2023-09-18T12:04:32;5.23;;;1.40;;
42600;SDS011;28229;48.856;9.088;2023-09-18T12:07:03;1.93;;;1.33;;
42600;SDS011;28229;48.856;9.088;2023-09-18T12:09:30;4.00;;;1.43;;
42600;SDS011;28229;48.856;9.088;2023-09-18T12:12:00;2.27;;;1.27;;
42600;SDS011;28229;48.856;9.088;2023-09-18T12:14:31;1.37;;;1.27;;
42600;SDS011;28229;48.856;9.088;2023-09-18T12:17:01;4.13;;;1.70;;
42600;SDS011;28229;48.856;9.088;2023-09-18T12:19:30;5.70;;;1.80;;
42600;SDS011;28229;48.856;9.088;2023-09-18T12:21:56;2.43;;;1.53;;
42600;SDS011;28229;48.856;9.088;2023-09-18T12:24:25;2.43;;;1.33;;
42600;SDS011;28229;48.856;9.088;2023-09-18T12:26:53;1.87;;;1.20;;
42600;SDS011;28229;48.856;9.088;2023-09-18T12:29:23;1.83;;;1.20;;
42600;SDS011;28229;48.856;9.088;2023-09-18T12:31:50;2.70;;;1.70;;
42600;SDS011;28229;48.856;9.088;2023-09-18T12:34:18;2.23;;;1.40;;
42600;SDS011;28229;48.856;9.088;2023-09-18T12:36:47;1.90;;;1.33;;
42600;SDS011;28229;48.856;9.088;2023-09-18T12:39:14;1.93;;;1.30;;
42600;SDS011;28229;48.856;9.088;2023-09-18T12:41:43;2.40;;;1.40;;
42600;SDS011;28229;48.856;9.088;2023-09-18T12:44:10;3.07;;;1.23;;
42600;SDS011;28229;48.856;9.088;2023-09-18T12:46:40;1.60;;;1.20;;
42600;SDS011;28229;48.856;9.088;2023-09-18T12:49:16;1.97;;;1.20;;
42600;SDS011;28229;48.856;9.088;2023-09-18T12:51:43;3.43;;;1.00;;
42600;SDS011;28229;48.856;9.088;2023-09-18T12:54:19;2.57;;;1.20;;
42600;SDS011;28229;48.856;9.088;2023-09-18T12:56:47;2.33;;;1.27;;
42600;SDS011;28229;48.856;9.088;2023-09-18T12:59:14;3.40;;;1.50;;
42600;SDS011;28229;48.856;9.088;2023-09-18T13:01:40;2.33;;;1.17;;
42600;SDS011;28229;48.856;9.088;2023-09-18T13:04:06;1.37;;;1.27;;
42600;SDS011;28229;48.856;9.088;2023-09-18T13:06:38;2.37;;;1.20;;
42600;SDS011;28229;48.856;9.088;2023-09-18T13:09:15;3.10;;;1.30;;
42600;SDS011;28229;48.856;9.088;2023-09-18T13:11:51;3.10;;;1.30;;
42600;SDS011;28229;48.856;9.088;2023-09-18T13:14:24;1.43;;;1.07;;
42600;SDS011;28229;48.856;9.088;2023-09-18T13:16:51;1.67;;;1.20;;
42600;SDS011;28229;48.856;9.088;2023-09-18T13:19:19;2.10;;;1.30;;
42600;SDS011;28229;48.856;9.088;2023-09-18T13:21:46;1.40;;;1.30;;
42600;SDS011;28229;48.856;9.088;2023-09-18T13:24:25;4.07;;;1.40;;
42600;SDS011;28229;48.856;9.088;2023-09-18T13:26:58;2.70;;;1.27;;
42600;SDS011;28229;48.856;9.088;2023-09-18T13:29:26;1.37;;;1.27;;
42600;SDS011;28229;48.856;9.088;2023-09-18T13:31:52;1.37;;;1.10;;
42600;SDS011;28229;48.856;9.088;2023-09-18T13:34:19;1.80;;;1.27;;
42600;SDS011;28229;48.856;9.088;2023-09-18T13:36:45;0.90;;;0.90;;
42600;SDS011;28229;48.856;9.088;2023-09-18T13:39:12;3.23;;;1.43;;
42600;SDS011;28229;48.856;9.088;2023-09-18T13:41:58;1.43;;;1.07;;
42600;SDS011;28229;48.856;9.088;2023-09-18T13:44:24;1.23;;;1.10;;
42600;SDS011;28229;48.856;9.088;2023-09-18T13:46:51;2.03;;;1.10;;
42600;SDS011;28229;48.856;9.088;2023-09-18T13:49:17;2.53;;;1.10;;
42600;SDS011;28229;48.856;9.088;2023-09-18T13:51:43;1.03;;;1.03;;
42600;SDS011;28229;48.856;9.088;2023-09-18T13:54:09;2.90;;;1.20;;
42600;SDS011;28229;48.856;9.088;2023-09-18T13:56:35;1.53;;;1.10;;
42600;SDS011;28229;48.856;9.088;2023-09-18T13:59:02;2.33;;;1.00;;
42600;SDS011;28229;48.856;9.088;2023-09-18T14:01:31;1.60;;;1.27;;
42600;SDS011;28229;48.856;9.088;2023-09-18T14:03:57;2.20;;;1.30;;
42600;SDS011;28229;48.856;9.088;2023-09-18T14:06:23;1.00;;;1.00;;
42600;SDS011;28229;48.856;9.088;2023-09-18T14:08:49;1.40;;;1.10;;
42600;SDS011;28229;48.856;9.088;2023-09-18T14:11:15;1.47;;;1.27;;
42600;SDS011;28229;48.856;9.088;2023-09-18T14:13:42;2.27;;;1.20;;
42600;SDS011;28229;48.856;9.088;2023-09-18T14:16:08;1.50;;;1.10;;
42600;SDS011;28229;48.856;9.088;2023-09-18T14:18:36;2.07;;;1.30;;
42600;SDS011;28229;48.856;9.088;2023-09-18T14:21:02;2.43;;;1.20;;
42600;SDS011;28229;48.856;9.088;2023-09-18T14:23:28;1.80;;;1.40;;
42600;SDS011;28229;48.856;9.088;2023-09-18T14:25:54;1.77;;;1.20;;
42600;SDS011;28229;48.856;9.088;2023-09-18T14:28:21;1.30;;;1.20;;
42600;SDS011;28229;48.856;9.088;2023-09-18T14:30:47;1.30;;;1.00;;
42600;SDS011;28229;48.856;9.088;2023-09-18T14:33:13;3.40;;;1.50;;
42600;SDS011;28229;48.856;9.088;2023-09-18T14:35:40;1.67;;;1.20;;
42600;SDS011;28229;48.856;9.088;2023-09-18T14:38:06;2.20;;;1.10;;
42600;SDS011;28229;48.856;9.088;2023-09-18T14:40:34;1.17;;;1.00;;
42600;SDS011;28229;48.856;9.088;2023-09-18T14:43:00;2.80;;;0.90;;
42600;SDS011;28229;48.856;9.088;2023-09-18T14:45:26;1.93;;;1.20;;
42600;SDS011;28229;48.856;9.088;2023-09-18T14:47:52;2.10;;;1.23;;
42600;SDS011;28229;48.856;9.088;2023-09-18T14:50:18;1.23;;;1.13;;
42600;SDS011;28229;48.856;9.088;2023-09-18T14:52:44;2.50;;;1.07;;
42600;SDS011;28229;48.856;9.088;2023-09-18T14:55:10;1.80;;;1.17;;
42600;SDS011;28229;48.856;9.088;2023-09-18T14:57:37;1.67;;;1.20;;
42600;SDS011;28229;48.856;9.088;2023-09-18T15:00:03;1.53;;;1.10;;
42600;SDS011;28229;48.856;9.088;2023-09-18T15:02:31;2.40;;;1.10;;
42600;SDS011;28229;48.856;9.088;2023-09-18T15:04:59;2.20;;;1.10;;
42600;SDS011;28229;48.856;9.088;2023-09-18T15:07:26;1.90;;;0.90;;